sensor_id;sensor_type;location;lat;lon;timestamp;temperature;humidity
23683;DHT22;24897;53.514;10.482;2023-08-07T00:00:56;15.60;99.90
23683;DHT22;24897;53.514;10.482;2023-08-07T00:03:40;15.60;99.90
23683;DHT22;24897;53.514;10.482;2023-08-07T00:06:24;15.60;99.90
23683;DHT22;24897;53.514;10.482;2023-08-07T00:09:08;15.60;99.90
23683;DHT22;24897;53.514;10.482;2023-08-07T00:11:52;15.60;99.90
23683;DHT22;24897;53.514;10.482;2023-08-07T00:14:37;15.60;99.90
23683;DHT22;24897;53.514;10.482;2023-08-07T00:17:20;15.60;99.90
23683;DHT22;24897;53.514;10.482;2023-08-07T00:20:05;15.60;99.90
23683;DHT22;24897;53.514;10.482;2023-08-07T00:22:50;15.60;99.90
23683;DHT22;24897;53.514;10.482;2023-08-07T00:25:34;15.50;99.90
23683;DHT22;24897;53.514;10.482;2023-08-07T00:28:17;15.50;99.90
23683;DHT22;24897;53.514;10.482;2023-08-07T00:31:02;15.50;99.90
23683;DHT22;24897;53.514;10.482;2023-08-07T00:33:46;15.60;99.90
23683;DHT22;24897;53.514;10.482;2023-08-07T00:36:31;15.50;99.90
23683;DHT22;24897;53.514;10.482;2023-08-07T00:39:18;15.50;99.90
23683;DHT22;24897;53.514;10.482;2023-08-07T00:42:02;15.50;99.90
23683;DHT22;24897;53.514;10.482;2023-08-07T00:44:47;15.40;99.90
23683;DHT22;24897;53.514;10.482;2023-08-07T00:47:31;15.40;99.90
23683;DHT22;24897;53.514;10.482;2023-08-07T00:50:15;15.40;99.90
23683;DHT22;24897;53.514;10.482;2023-08-07T00:52:59;15.40;99.90
23683;DHT22;24897;53.514;10.482;2023-08-07T00:55:44;15.40;99.90
23683;DHT22;24897;53.514;10.482;2023-08-07T00:58:29;15.40;99.90
23683;DHT22;24897;53.514;10.482;2023-08-07T01:01:13;15.30;99.90
23683;DHT22;24897;53.514;10.482;2023-08-07T01:03:58;15.30;99.90
23683;DHT22;24897;53.514;10.482;2023-08-07T01:06:42;15.30;99.90
23683;DHT22;24897;53.514;10.482;2023-08-07T01:09:26;15.20;99.90
23683;DHT22;24897;53.514;10.482;2023-08-07T01:12:15;15.20;99.90
23683;DHT22;24897;53.514;10.482;2023-08-07T01:15:14;15.10;99.90
23683;DHT22;24897;53.514;10.482;2023-08-07T01:17:59;15.20;99.90
23683;DHT22;24897;53.514;10.482;2023-08-07T01:20:43;15.10;99.90
23683;DHT22;24897;53.514;10.482;2023-08-07T01:23:27;15.10;99.90
23683;DHT22;24897;53.514;10.482;2023-08-07T01:26:11;15.10;99.90
23683;DHT22;24897;53.514;10.482;2023-08-07T01:29:08;15.10;99.90
23683;DHT22;24897;53.514;10.482;2023-08-07T01:31:54;15.10;99.90
23683;DHT22;24897;53.514;10.482;2023-08-07T01:34:41;14.90;99.90
23683;DHT22;24897;53.514;10.482;2023-08-07T01:37:26;15.00;99.90
23683;DHT22;24897;53.514;10.482;2023-08-07T01:40:13;15.00;99.90
23683;DHT22;24897;53.514;10.482;2023-08-07T01:42:58;15.00;99.90
23683;DHT22;24897;53.514;10.482;2023-08-07T01:45:43;14.90;99.90
23683;DHT22;24897;53.514;10.482;2023-08-07T01:48:27;14.90;99.90
23683;DHT22;24897;53.514;10.482;2023-08-07T01:51:12;14.90;99.90
23683;DHT22;24897;53.514;10.482;2023-08-07T01:53:56;14.80;99.90
23683;DHT22;24897;53.514;10.482;2023-08-07T01:56:40;14.80;99.90
23683;DHT22;24897;53.514;10.482;2023-08-07T01:59:24;14.80;99.90
23683;DHT22;24897;53.514;10.482;2023-08-07T02:02:08;14.80;99.90
23683;DHT22;24897;53.514;10.482;2023-08-07T02:04:53;14.80;99.90
23683;DHT22;24897;53.514;10.482;2023-08-07T02:07:37;14.80;99.90
23683;DHT22;24897;53.514;10.482;2023-08-07T02:10:22;14.80;99.90
23683;DHT22;24897;53.514;10.482;2023-08-07T02:13:07;14.80;99.90
23683;DHT22;24897;53.514;10.482;2023-08-07T02:15:51;14.80;99.90
23683;DHT22;24897;53.514;10.482;2023-08-07T02:18:35;14.70;99.90
23683;DHT22;24897;53.514;10.482;2023-08-07T02:21:19;14.70;99.90
23683;DHT22;24897;53.514;10.482;2023-08-07T02:24:03;14.80;99.90
23683;DHT22;24897;53.514;10.482;2023-08-07T02:26:48;14.80;99.90
23683;DHT22;24897;53.514;10.482;2023-08-07T02:29:32;14.70;99.90
23683;DHT22;24897;53.514;10.482;2023-08-07T02:32:18;14.70;99.90
23683;DHT22;24897;53.514;10.482;2023-08-07T02:35:02;14.70;99.90
23683;DHT22;24897;53.514;10.482;2023-08-07T02:37:46;14.70;99.90
23683;DHT22;24897;53.514;10.482;2023-08-07T02:40:30;14.80;99.90
23683;DHT22;24897;53.514;10.482;2023-08-07T02:43:15;14.70;99.90
23683;DHT22;24897;53.514;10.482;2023-08-07T02:46:00;14.80;99.90
23683;DHT22;24897;53.514;10.482;2023-08-07T02:48:44;14.80;99.90
23683;DHT22;24897;53.514;10.482;2023-08-07T02:51:28;14.70;99.90
23683;DHT22;24897;53.514;10.482;2023-08-07T02:54:12;14.80;99.90
23683;DHT22;24897;53.514;10.482;2023-08-07T02:56:57;14.80;99.90
23683;DHT22;24897;53.514;10.482;2023-08-07T02:59:41;14.80;99.90
23683;DHT22;24897;53.514;10.482;2023-08-07T03:02:25;14.80;99.90
23683;DHT22;24897;53.514;10.482;2023-08-07T03:05:09;14.80;99.90
23683;DHT22;24897;53.514;10.482;2023-08-07T03:07:53;14.80;99.90
23683;DHT22;24897;53.514;10.482;2023-08-07T03:10:37;14.90;99.90
23683;DHT22;24897;53.514;10.482;2023-08-07T03:13:22;14.90;99.90
23683;DHT22;24897;53.514;10.482;2023-08-07T03:16:07;15.00;99.90
23683;DHT22;24897;53.514;10.482;2023-08-07T03:18:51;14.90;99.90
23683;DHT22;24897;53.514;10.482;2023-08-07T03:21:36;14.80;99.90
23683;DHT22;24897;53.514;10.482;2023-08-07T03:24:20;14.80;99.90
23683;DHT22;24897;53.514;10.482;2023-08-07T03:27:04;14.80;99.90
23683;DHT22;24897;53.514;10.482;2023-08-07T03:29:48;13.60;99.90
23683;DHT22;24897;53.514;10.482;2023-08-07T03:32:32;14.80;99.90
23683;DHT22;24897;53.514;10.482;2023-08-07T03:35:16;14.80;99.90
23683;DHT22;24897;53.514;10.482;2023-08-07T03:38:00;14.80;99.90
23683;DHT22;24897;53.514;10.482;2023-08-07T03:40:44;14.80;99.90
23683;DHT22;24897;53.514;10.482;2023-08-07T03:43:28;14.80;99.90
23683;DHT22;24897;53.514;10.482;2023-08-07T03:46:13;14.80;99.90
23683;DHT22;24897;53.514;10.482;2023-08-07T03:48:57;14.80;99.90
23683;DHT22;24897;53.514;10.482;2023-08-07T03:51:41;14.80;99.90
23683;DHT22;24897;53.514;10.482;2023-08-07T03:54:25;14.80;99.90
23683;DHT22;24897;53.514;10.482;2023-08-07T03:57:10;14.80;99.90
23683;DHT22;24897;53.514;10.482;2023-08-07T03:59:57;14.80;99.90
23683;DHT22;24897;53.514;10.482;2023-08-07T04:02:42;14.80;99.90
23683;DHT22;24897;53.514;10.482;2023-08-07T04:05:26;14.90;99.90
23683;DHT22;24897;53.514;10.482;2023-08-07T04:08:10;14.80;99.90
23683;DHT22;24897;53.514;10.482;2023-08-07T04:11:02;14.80;99.90
23683;DHT22;24897;53.514;10.482;2023-08-07T04:13:46;14.90;99.90
23683;DHT22;24897;53.514;10.482;2023-08-07T04:16:30;15.00;99.90
23683;DHT22;24897;53.514;10.482;2023-08-07T04:19:15;15.00;99.90
23683;DHT22;24897;53.514;10.482;2023-08-07T04:21:59;15.10;99.90
23683;DHT22;24897;53.514;10.482;2023-08-07T04:24:43;15.10;99.90
23683;DHT22;24897;53.514;10.482;2023-08-07T04:27:27;15.10;99.90
23683;DHT22;24897;53.514;10.482;2023-08-07T04:30:11;15.10;99.90
23683;DHT22;24897;53.514;10.482;2023-08-07T04:32:56;15.20;99.90
23683;DHT22;24897;53.514;10.482;2023-08-07T04:35:40;15.20;99.90
23683;DHT22;24897;53.514;10.482;2023-08-07T04:38:24;15.30;99.90
23683;DHT22;24897;53.514;10.482;2023-08-07T04:41:09;15.30;99.90
23683;DHT22;24897;53.514;10.482;2023-08-07T04:43:54;15.30;99.90
23683;DHT22;24897;53.514;10.482;2023-08-07T04:46:38;15.40;99.90
23683;DHT22;24897;53.514;10.482;2023-08-07T04:49:22;15.40;99.90
23683;DHT22;24897;53.514;10.482;2023-08-07T04:52:06;15.40;99.90
23683;DHT22;24897;53.514;10.482;2023-08-07T04:54:50;15.40;99.90
23683;DHT22;24897;53.514;10.482;2023-08-07T04:57:34;15.40;99.90
23683;DHT22;24897;53.514;10.482;2023-08-07T05:00:18;15.50;99.90
23683;DHT22;24897;53.514;10.482;2023-08-07T05:03:02;15.50;99.90
23683;DHT22;24897;53.514;10.482;2023-08-07T05:05:46;15.50;99.90
23683;DHT22;24897;53.514;10.482;2023-08-07T05:08:31;15.60;99.90
23683;DHT22;24897;53.514;10.482;2023-08-07T05:11:15;15.60;99.90
23683;DHT22;24897;53.514;10.482;2023-08-07T05:13:59;15.80;99.90
23683;DHT22;24897;53.514;10.482;2023-08-07T05:16:43;15.80;99.90
23683;DHT22;24897;53.514;10.482;2023-08-07T05:19:27;15.80;99.90
23683;DHT22;24897;53.514;10.482;2023-08-07T05:22:11;15.80;99.90
23683;DHT22;24897;53.514;10.482;2023-08-07T05:24:55;15.80;99.90
23683;DHT22;24897;53.514;10.482;2023-08-07T05:27:39;15.80;99.90
23683;DHT22;24897;53.514;10.482;2023-08-07T05:30:24;15.90;99.90
23683;DHT22;24897;53.514;10.482;2023-08-07T05:33:08;16.00;99.90
23683;DHT22;24897;53.514;10.482;2023-08-07T05:35:53;16.10;99.90
23683;DHT22;24897;53.514;10.482;2023-08-07T05:38:39;16.10;99.90
23683;DHT22;24897;53.514;10.482;2023-08-07T05:41:23;16.10;99.90
23683;DHT22;24897;53.514;10.482;2023-08-07T05:44:07;16.10;99.90
23683;DHT22;24897;53.514;10.482;2023-08-07T05:46:51;16.20;99.90
23683;DHT22;24897;53.514;10.482;2023-08-07T05:49:35;16.20;99.90
23683;DHT22;24897;53.514;10.482;2023-08-07T05:52:20;16.20;99.90
23683;DHT22;24897;53.514;10.482;2023-08-07T05:55:04;16.30;99.90
23683;DHT22;24897;53.514;10.482;2023-08-07T05:57:49;16.30;99.90
23683;DHT22;24897;53.514;10.482;2023-08-07T06:00:34;16.40;99.90
23683;DHT22;24897;53.514;10.482;2023-08-07T06:03:18;16.40;99.90
23683;DHT22;24897;53.514;10.482;2023-08-07T06:06:02;16.40;99.90
23683;DHT22;24897;53.514;10.482;2023-08-07T06:08:47;16.40;99.90
23683;DHT22;24897;53.514;10.482;2023-08-07T06:11:31;16.40;99.90
23683;DHT22;24897;53.514;10.482;2023-08-07T06:14:15;16.50;99.90
23683;DHT22;24897;53.514;10.482;2023-08-07T06:16:59;16.60;99.90
23683;DHT22;24897;53.514;10.482;2023-08-07T06:19:45;16.70;99.90
23683;DHT22;24897;53.514;10.482;2023-08-07T06:22:29;16.60;99.90
23683;DHT22;24897;53.514;10.482;2023-08-07T06:25:13;16.80;99.90
23683;DHT22;24897;53.514;10.482;2023-08-07T06:27:57;16.90;99.90
23683;DHT22;24897;53.514;10.482;2023-08-07T06:30:42;16.80;99.90
23683;DHT22;24897;53.514;10.482;2023-08-07T06:33:26;16.70;99.90
23683;DHT22;24897;53.514;10.482;2023-08-07T06:36:10;16.70;99.90
23683;DHT22;24897;53.514;10.482;2023-08-07T06:38:54;16.80;99.90
23683;DHT22;24897;53.514;10.482;2023-08-07T06:41:38;17.00;99.90
23683;DHT22;24897;53.514;10.482;2023-08-07T06:44:23;17.10;99.90
23683;DHT22;24897;53.514;10.482;2023-08-07T06:47:08;17.10;99.90
23683;DHT22;24897;53.514;10.482;2023-08-07T06:49:53;17.20;99.90
23683;DHT22;24897;53.514;10.482;2023-08-07T06:52:38;17.30;99.90
23683;DHT22;24897;53.514;10.482;2023-08-07T06:55:22;17.50;99.90
23683;DHT22;24897;53.514;10.482;2023-08-07T06:58:06;17.50;99.90
23683;DHT22;24897;53.514;10.482;2023-08-07T07:00:51;17.60;99.90
23683;DHT22;24897;53.514;10.482;2023-08-07T07:03:35;17.70;99.90
23683;DHT22;24897;53.514;10.482;2023-08-07T07:06:19;17.80;99.90
23683;DHT22;24897;53.514;10.482;2023-08-07T07:09:04;18.00;99.90
23683;DHT22;24897;53.514;10.482;2023-08-07T07:11:48;18.10;99.90
23683;DHT22;24897;53.514;10.482;2023-08-07T07:14:33;18.10;99.90
23683;DHT22;24897;53.514;10.482;2023-08-07T07:17:17;18.30;99.90
23683;DHT22;24897;53.514;10.482;2023-08-07T07:20:01;18.40;99.90
23683;DHT22;24897;53.514;10.482;2023-08-07T07:22:46;18.30;99.90
23683;DHT22;24897;53.514;10.482;2023-08-07T07:25:30;18.10;99.90
23683;DHT22;24897;53.514;10.482;2023-08-07T07:28:14;18.00;99.90
23683;DHT22;24897;53.514;10.482;2023-08-07T07:30:58;18.10;99.90
23683;DHT22;24897;53.514;10.482;2023-08-07T07:33:42;17.80;99.90
23683;DHT22;24897;53.514;10.482;2023-08-07T07:36:26;17.70;99.90
23683;DHT22;24897;53.514;10.482;2023-08-07T07:39:10;17.70;99.90
23683;DHT22;24897;53.514;10.482;2023-08-07T07:41:55;17.80;99.90
23683;DHT22;24897;53.514;10.482;2023-08-07T07:44:39;17.70;99.90
23683;DHT22;24897;53.514;10.482;2023-08-07T07:47:24;17.70;99.90
23683;DHT22;24897;53.514;10.482;2023-08-07T07:50:09;17.80;99.90
23683;DHT22;24897;53.514;10.482;2023-08-07T07:52:53;17.60;99.90
23683;DHT22;24897;53.514;10.482;2023-08-07T07:55:37;17.40;99.90
23683;DHT22;24897;53.514;10.482;2023-08-07T07:58:22;17.50;99.90
23683;DHT22;24897;53.514;10.482;2023-08-07T08:01:06;17.40;99.90
23683;DHT22;24897;53.514;10.482;2023-08-07T08:03:51;17.40;99.90
23683;DHT22;24897;53.514;10.482;2023-08-07T08:06:36;17.40;99.90
23683;DHT22;24897;53.514;10.482;2023-08-07T08:09:20;17.50;99.90
23683;DHT22;24897;53.514;10.482;2023-08-07T08:12:04;17.40;99.90
23683;DHT22;24897;53.514;10.482;2023-08-07T08:14:48;17.40;99.90
23683;DHT22;24897;53.514;10.482;2023-08-07T08:17:33;17.80;99.90
23683;DHT22;24897;53.514;10.482;2023-08-07T08:20:17;18.30;99.90
23683;DHT22;24897;53.514;10.482;2023-08-07T08:23:02;18.70;99.90
23683;DHT22;24897;53.514;10.482;2023-08-07T08:25:48;18.90;99.90
23683;DHT22;24897;53.514;10.482;2023-08-07T08:28:32;18.80;99.90
23683;DHT22;24897;53.514;10.482;2023-08-07T08:31:16;18.90;99.90
23683;DHT22;24897;53.514;10.482;2023-08-07T08:34:00;18.80;99.90
23683;DHT22;24897;53.514;10.482;2023-08-07T08:36:45;18.80;99.90
23683;DHT22;24897;53.514;10.482;2023-08-07T08:39:29;18.20;99.90
23683;DHT22;24897;53.514;10.482;2023-08-07T08:42:13;18.00;99.90
23683;DHT22;24897;53.514;10.482;2023-08-07T08:44:59;17.80;99.90
23683;DHT22;24897;53.514;10.482;2023-08-07T08:47:43;17.50;99.90
23683;DHT22;24897;53.514;10.482;2023-08-07T08:50:29;17.20;99.90
23683;DHT22;24897;53.514;10.482;2023-08-07T08:53:14;17.20;99.90
23683;DHT22;24897;53.514;10.482;2023-08-07T08:56:00;17.60;99.90
23683;DHT22;24897;53.514;10.482;2023-08-07T08:58:46;18.00;99.90
23683;DHT22;24897;53.514;10.482;2023-08-07T09:01:31;18.20;99.90
23683;DHT22;24897;53.514;10.482;2023-08-07T09:04:16;18.30;99.90
23683;DHT22;24897;53.514;10.482;2023-08-07T09:07:01;18.30;99.90
23683;DHT22;24897;53.514;10.482;2023-08-07T09:09:46;18.20;99.90
23683;DHT22;24897;53.514;10.482;2023-08-07T09:12:32;18.10;99.90
23683;DHT22;24897;53.514;10.482;2023-08-07T09:15:19;17.90;99.90
23683;DHT22;24897;53.514;10.482;2023-08-07T09:18:06;17.10;99.90
23683;DHT22;24897;53.514;10.482;2023-08-07T09:20:56;16.80;99.90
23683;DHT22;24897;53.514;10.482;2023-08-07T09:23:41;16.60;99.90
23683;DHT22;24897;53.514;10.482;2023-08-07T09:26:25;16.50;99.90
23683;DHT22;24897;53.514;10.482;2023-08-07T09:29:09;16.60;99.90
23683;DHT22;24897;53.514;10.482;2023-08-07T09:31:54;16.80;99.90
23683;DHT22;24897;53.514;10.482;2023-08-07T09:34:39;16.50;99.90
23683;DHT22;24897;53.514;10.482;2023-08-07T09:37:24;16.60;99.90
23683;DHT22;24897;53.514;10.482;2023-08-07T09:40:08;16.70;99.90
23683;DHT22;24897;53.514;10.482;2023-08-07T09:42:55;16.70;99.90
23683;DHT22;24897;53.514;10.482;2023-08-07T09:45:40;17.50;99.90
23683;DHT22;24897;53.514;10.482;2023-08-07T09:48:24;18.30;99.90
23683;DHT22;24897;53.514;10.482;2023-08-07T09:51:10;19.40;99.90
23683;DHT22;24897;53.514;10.482;2023-08-07T09:53:55;19.70;99.90
23683;DHT22;24897;53.514;10.482;2023-08-07T09:56:43;19.50;99.90
23683;DHT22;24897;53.514;10.482;2023-08-07T09:59:28;19.60;99.90
23683;DHT22;24897;53.514;10.482;2023-08-07T10:02:12;19.00;99.90
23683;DHT22;24897;53.514;10.482;2023-08-07T10:04:56;18.70;99.90
23683;DHT22;24897;53.514;10.482;2023-08-07T10:07:42;18.10;99.90
23683;DHT22;24897;53.514;10.482;2023-08-07T10:10:26;18.10;99.90
23683;DHT22;24897;53.514;10.482;2023-08-07T10:13:12;18.20;99.90
23683;DHT22;24897;53.514;10.482;2023-08-07T10:15:58;18.30;99.90
23683;DHT22;24897;53.514;10.482;2023-08-07T10:18:42;18.50;99.90
23683;DHT22;24897;53.514;10.482;2023-08-07T10:21:27;19.30;99.90
23683;DHT22;24897;53.514;10.482;2023-08-07T10:24:11;19.40;99.90
23683;DHT22;24897;53.514;10.482;2023-08-07T10:26:57;19.70;99.90
23683;DHT22;24897;53.514;10.482;2023-08-07T10:29:42;19.90;99.90
23683;DHT22;24897;53.514;10.482;2023-08-07T10:32:27;19.90;99.90
23683;DHT22;24897;53.514;10.482;2023-08-07T10:35:32;20.00;99.90
23683;DHT22;24897;53.514;10.482;2023-08-07T10:38:20;20.40;99.90
23683;DHT22;24897;53.514;10.482;2023-08-07T10:41:13;20.20;99.90
23683;DHT22;24897;53.514;10.482;2023-08-07T10:43:58;19.90;99.90
23683;DHT22;24897;53.514;10.482;2023-08-07T10:46:53;19.60;99.90
23683;DHT22;24897;53.514;10.482;2023-08-07T10:49:41;19.70;99.90
23683;DHT22;24897;53.514;10.482;2023-08-07T10:52:27;19.60;99.90
23683;DHT22;24897;53.514;10.482;2023-08-07T10:55:15;19.70;99.90
23683;DHT22;24897;53.514;10.482;2023-08-07T10:57:59;19.80;99.90
23683;DHT22;24897;53.514;10.482;2023-08-07T11:00:45;20.10;99.90
23683;DHT22;24897;53.514;10.482;2023-08-07T11:03:29;20.30;99.90
23683;DHT22;24897;53.514;10.482;2023-08-07T11:06:13;20.30;99.90
23683;DHT22;24897;53.514;10.482;2023-08-07T11:08:58;20.30;99.90
23683;DHT22;24897;53.514;10.482;2023-08-07T11:11:45;20.10;99.90
23683;DHT22;24897;53.514;10.482;2023-08-07T11:14:30;19.80;99.90
23683;DHT22;24897;53.514;10.482;2023-08-07T11:17:14;20.00;99.90
23683;DHT22;24897;53.514;10.482;2023-08-07T11:20:03;20.00;99.90
23683;DHT22;24897;53.514;10.482;2023-08-07T11:22:48;19.90;99.90
23683;DHT22;24897;53.514;10.482;2023-08-07T11:25:32;19.80;99.90
23683;DHT22;24897;53.514;10.482;2023-08-07T11:28:20;19.90;99.90
23683;DHT22;24897;53.514;10.482;2023-08-07T11:31:05;19.60;99.90
23683;DHT22;24897;53.514;10.482;2023-08-07T11:33:53;19.60;99.90
23683;DHT22;24897;53.514;10.482;2023-08-07T11:36:43;19.90;99.90
23683;DHT22;24897;53.514;10.482;2023-08-07T11:39:27;20.50;99.90
23683;DHT22;24897;53.514;10.482;2023-08-07T11:42:11;20.30;99.90
23683;DHT22;24897;53.514;10.482;2023-08-07T11:44:55;19.80;99.90
23683;DHT22;24897;53.514;10.482;2023-08-07T11:47:39;19.20;99.90
23683;DHT22;24897;53.514;10.482;2023-08-07T11:50:23;18.80;99.90
23683;DHT22;24897;53.514;10.482;2023-08-07T11:53:07;18.70;99.90
23683;DHT22;24897;53.514;10.482;2023-08-07T11:55:53;19.20;99.90
23683;DHT22;24897;53.514;10.482;2023-08-07T11:58:43;19.10;99.90
23683;DHT22;24897;53.514;10.482;2023-08-07T12:01:30;19.20;99.90
23683;DHT22;24897;53.514;10.482;2023-08-07T12:04:14;20.00;99.90
23683;DHT22;24897;53.514;10.482;2023-08-07T12:06:58;20.10;99.90
23683;DHT22;24897;53.514;10.482;2023-08-07T12:09:42;20.20;99.90
23683;DHT22;24897;53.514;10.482;2023-08-07T12:12:26;20.40;99.90
23683;DHT22;24897;53.514;10.482;2023-08-07T12:15:10;20.00;99.90
23683;DHT22;24897;53.514;10.482;2023-08-07T12:18:01;19.60;99.90
23683;DHT22;24897;53.514;10.482;2023-08-07T12:20:45;19.40;99.90
23683;DHT22;24897;53.514;10.482;2023-08-07T12:23:33;19.40;99.90
23683;DHT22;24897;53.514;10.482;2023-08-07T12:26:18;19.60;99.90
23683;DHT22;24897;53.514;10.482;2023-08-07T12:29:02;20.10;99.90
23683;DHT22;24897;53.514;10.482;2023-08-07T12:31:46;20.20;99.90
23683;DHT22;24897;53.514;10.482;2023-08-07T12:34:30;20.20;99.90
23683;DHT22;24897;53.514;10.482;2023-08-07T12:37:14;19.90;99.90
23683;DHT22;24897;53.514;10.482;2023-08-07T12:39:58;19.50;99.90
23683;DHT22;24897;53.514;10.482;2023-08-07T12:42:43;18.80;99.90
23683;DHT22;24897;53.514;10.482;2023-08-07T12:45:27;18.60;99.90
23683;DHT22;24897;53.514;10.482;2023-08-07T12:48:11;19.90;99.90
23683;DHT22;24897;53.514;10.482;2023-08-07T12:50:55;19.30;99.90
23683;DHT22;24897;53.514;10.482;2023-08-07T12:53:39;19.20;99.90
23683;DHT22;24897;53.514;10.482;2023-08-07T12:56:23;19.10;99.90
23683;DHT22;24897;53.514;10.482;2023-08-07T12:59:07;19.10;99.90
23683;DHT22;24897;53.514;10.482;2023-08-07T13:01:51;19.40;99.90
23683;DHT22;24897;53.514;10.482;2023-08-07T13:04:37;19.10;99.90
23683;DHT22;24897;53.514;10.482;2023-08-07T13:07:21;18.50;99.90
23683;DHT22;24897;53.514;10.482;2023-08-07T13:10:06;18.00;99.90
23683;DHT22;24897;53.514;10.482;2023-08-07T13:12:51;18.20;99.90
23683;DHT22;24897;53.514;10.482;2023-08-07T13:15:35;18.40;99.90
23683;DHT22;24897;53.514;10.482;2023-08-07T13:18:20;18.70;99.90
23683;DHT22;24897;53.514;10.482;2023-08-07T13:21:04;18.80;99.90
23683;DHT22;24897;53.514;10.482;2023-08-07T13:23:48;18.80;99.90
23683;DHT22;24897;53.514;10.482;2023-08-07T13:26:33;18.50;99.90
23683;DHT22;24897;53.514;10.482;2023-08-07T13:29:17;18.20;99.90
23683;DHT22;24897;53.514;10.482;2023-08-07T13:32:02;17.70;99.90
23683;DHT22;24897;53.514;10.482;2023-08-07T13:34:50;17.90;99.90
23683;DHT22;24897;53.514;10.482;2023-08-07T13:37:35;18.40;99.90
23683;DHT22;24897;53.514;10.482;2023-08-07T13:40:21;18.60;99.90
23683;DHT22;24897;53.514;10.482;2023-08-07T13:43:05;18.90;99.90
23683;DHT22;24897;53.514;10.482;2023-08-07T13:45:52;19.40;99.90
23683;DHT22;24897;53.514;10.482;2023-08-07T13:48:37;19.30;99.90
23683;DHT22;24897;53.514;10.482;2023-08-07T13:51:21;19.30;99.90
23683;DHT22;24897;53.514;10.482;2023-08-07T13:54:05;19.30;99.90
23683;DHT22;24897;53.514;10.482;2023-08-07T13:56:50;19.30;99.90
23683;DHT22;24897;53.514;10.482;2023-08-07T13:59:34;19.50;99.90
23683;DHT22;24897;53.514;10.482;2023-08-07T14:02:18;19.50;99.90
23683;DHT22;24897;53.514;10.482;2023-08-07T14:05:02;19.60;99.90
23683;DHT22;24897;53.514;10.482;2023-08-07T14:07:47;19.80;99.90
23683;DHT22;24897;53.514;10.482;2023-08-07T14:10:31;19.60;99.90
23683;DHT22;24897;53.514;10.482;2023-08-07T14:13:15;19.30;99.90
23683;DHT22;24897;53.514;10.482;2023-08-07T14:15:59;19.00;99.90
23683;DHT22;24897;53.514;10.482;2023-08-07T14:18:43;18.80;99.90
23683;DHT22;24897;53.514;10.482;2023-08-07T14:21:27;18.50;99.90
23683;DHT22;24897;53.514;10.482;2023-08-07T14:24:12;18.30;99.90
23683;DHT22;24897;53.514;10.482;2023-08-07T14:26:56;18.10;99.90
23683;DHT22;24897;53.514;10.482;2023-08-07T14:29:40;18.00;99.90
23683;DHT22;24897;53.514;10.482;2023-08-07T14:32:24;18.00;99.90
23683;DHT22;24897;53.514;10.482;2023-08-07T14:35:08;18.00;99.90
23683;DHT22;24897;53.514;10.482;2023-08-07T14:37:53;18.10;99.90
23683;DHT22;24897;53.514;10.482;2023-08-07T14:40:37;18.50;99.90
23683;DHT22;24897;53.514;10.482;2023-08-07T14:43:25;18.50;99.90
23683;DHT22;24897;53.514;10.482;2023-08-07T14:46:16;18.70;99.90
23683;DHT22;24897;53.514;10.482;2023-08-07T14:49:01;18.50;99.90
23683;DHT22;24897;53.514;10.482;2023-08-07T14:51:45;18.50;99.90
23683;DHT22;24897;53.514;10.482;2023-08-07T14:54:29;18.50;99.90
23683;DHT22;24897;53.514;10.482;2023-08-07T14:57:13;18.50;99.90
23683;DHT22;24897;53.514;10.482;2023-08-07T14:59:57;18.80;99.90
23683;DHT22;24897;53.514;10.482;2023-08-07T15:02:41;18.50;99.90
23683;DHT22;24897;53.514;10.482;2023-08-07T15:05:25;18.40;99.90
23683;DHT22;24897;53.514;10.482;2023-08-07T15:08:09;18.70;99.90
23683;DHT22;24897;53.514;10.482;2023-08-07T15:10:54;18.90;99.90
23683;DHT22;24897;53.514;10.482;2023-08-07T15:13:38;19.00;99.90
23683;DHT22;24897;53.514;10.482;2023-08-07T15:16:23;18.80;99.90
23683;DHT22;24897;53.514;10.482;2023-08-07T15:19:07;18.10;99.90
23683;DHT22;24897;53.514;10.482;2023-08-07T15:21:52;18.00;99.90
23683;DHT22;24897;53.514;10.482;2023-08-07T15:24:35;17.70;99.90
23683;DHT22;24897;53.514;10.482;2023-08-07T15:27:19;17.40;99.90
23683;DHT22;24897;53.514;10.482;2023-08-07T15:30:04;17.40;99.90
23683;DHT22;24897;53.514;10.482;2023-08-07T15:32:48;16.80;99.90
23683;DHT22;24897;53.514;10.482;2023-08-07T15:35:32;16.50;99.90
23683;DHT22;24897;53.514;10.482;2023-08-07T15:38:16;16.40;99.90
23683;DHT22;24897;53.514;10.482;2023-08-07T15:41:01;16.20;99.90
23683;DHT22;24897;53.514;10.482;2023-08-07T15:43:45;16.00;99.90
23683;DHT22;24897;53.514;10.482;2023-08-07T15:46:29;16.00;99.90
23683;DHT22;24897;53.514;10.482;2023-08-07T15:49:14;16.10;99.90
23683;DHT22;24897;53.514;10.482;2023-08-07T15:51:58;16.10;99.90
23683;DHT22;24897;53.514;10.482;2023-08-07T15:54:42;16.20;99.90
23683;DHT22;24897;53.514;10.482;2023-08-07T15:57:29;16.30;99.90
23683;DHT22;24897;53.514;10.482;2023-08-07T16:00:14;16.20;99.90
23683;DHT22;24897;53.514;10.482;2023-08-07T16:02:59;16.20;99.90
23683;DHT22;24897;53.514;10.482;2023-08-07T16:05:44;16.20;99.90
23683;DHT22;24897;53.514;10.482;2023-08-07T16:08:29;16.10;99.90
23683;DHT22;24897;53.514;10.482;2023-08-07T16:11:13;15.80;99.90
23683;DHT22;24897;53.514;10.482;2023-08-07T16:13:57;15.50;99.90
23683;DHT22;24897;53.514;10.482;2023-08-07T16:16:41;15.20;99.90
23683;DHT22;24897;53.514;10.482;2023-08-07T16:19:25;15.10;99.90
23683;DHT22;24897;53.514;10.482;2023-08-07T16:22:09;15.00;99.90
23683;DHT22;24897;53.514;10.482;2023-08-07T16:24:53;15.10;99.90
23683;DHT22;24897;53.514;10.482;2023-08-07T16:27:38;15.20;99.90
23683;DHT22;24897;53.514;10.482;2023-08-07T16:30:23;15.20;99.90
23683;DHT22;24897;53.514;10.482;2023-08-07T16:35:51;15.30;99.90
23683;DHT22;24897;53.514;10.482;2023-08-07T16:38:37;15.30;99.90
23683;DHT22;24897;53.514;10.482;2023-08-07T16:41:21;15.40;99.90
23683;DHT22;24897;53.514;10.482;2023-08-07T16:44:05;15.40;99.90
23683;DHT22;24897;53.514;10.482;2023-08-07T16:46:50;15.40;99.90
23683;DHT22;24897;53.514;10.482;2023-08-07T16:49:34;15.40;99.90
23683;DHT22;24897;53.514;10.482;2023-08-07T16:52:18;15.30;99.90
23683;DHT22;24897;53.514;10.482;2023-08-07T16:55:03;15.30;99.90
23683;DHT22;24897;53.514;10.482;2023-08-07T16:57:48;15.40;99.90
23683;DHT22;24897;53.514;10.482;2023-08-07T17:00:32;15.90;99.90
23683;DHT22;24897;53.514;10.482;2023-08-07T17:03:16;15.90;99.90
23683;DHT22;24897;53.514;10.482;2023-08-07T17:06:00;16.10;99.90